Time;durP1;ratioP1;P1;durP2;ratioP2;P2;SDS_P1;SDS_P2;PMS_P1;PMS_P2;Temp;Humidity;BMP_temperature;BMP_pressure;BME280_temperature;BME280_humidity;BME280_pressure;Samples;Min_cycle;Max_cycle;Signal;HPM_P1;HPM_P2
2023/07/09 00:02:15;;;;;;;9.68;4.82;;;;;;;-143.21;60.15;71959.16;5134760;27;20290;-81
2023/07/09 00:04:42;;;;;;;9.07;4.78;;;;;;;-143.21;60.21;71961.13;5134716;27;20198;-79
2023/07/09 00:07:17;;;;;;;9.50;4.10;;;;;;;-143.21;60.13;71963.13;5134030;27;20276;-80
2023/07/09 00:09:44;;;;;;;9.88;4.30;;;;;;;-143.21;60.80;71967.09;5123573;27;20797;-80
2023/07/09 00:12:14;;;;;;;10.82;4.25;;;;;;;-143.21;60.64;71971.06;5113760;28;20210;-79
2023/07/09 00:14:41;;;;;;;5.93;4.15;;;;;;;-143.21;60.38;71978.97;5113746;28;20172;-80
2023/07/09 00:17:11;;;;;;;7.30;4.00;;;;;;;-143.21;60.34;71971.06;5114042;28;20192;-79
2023/07/09 00:19:37;;;;;;;9.27;4.03;;;;;;;-143.21;60.71;71967.09;5113942;28;20200;-80
2023/07/09 00:22:17;;;;;;;8.93;4.00;;;;;;;-143.21;60.02;71965.09;5113454;28;20188;-80
2023/07/09 00:24:45;;;;;;;7.35;3.80;;;;;;;-143.21;60.11;71973.03;5113894;28;20211;-80
2023/07/09 00:27:12;;;;;;;6.00;3.95;;;;;;;-143.21;59.96;71963.13;5113724;27;20220;-81
2023/07/09 00:29:39;;;;;;;10.88;4.07;;;;;;;-143.21;59.61;71953.19;5113272;28;20196;-81
2023/07/09 00:32:15;;;;;;;7.75;4.30;;;;;;;-143.21;59.14;71947.25;5113591;28;20200;-81
2023/07/09 00:34:42;;;;;;;8.70;4.50;;;;;;;-143.21;59.37;71955.19;5113410;28;20666;-80
2023/07/09 00:37:12;;;;;;;6.72;3.92;;;;;;;-143.21;59.49;71961.13;5112931;28;20235;-80
2023/07/09 00:39:41;;;;;;;5.57;4.03;;;;;;;-143.21;59.61;71975.00;5112439;28;20227;-79
2023/07/09 00:42:14;;;;;;;12.25;4.05;;;;;;;-143.21;59.48;71978.97;5113465;28;20693;-79
2023/07/09 00:44:43;;;;;;;15.48;4.60;;;;;;;-143.21;59.72;71988.91;5112887;28;20180;-80
2023/07/09 00:47:32;;;;;;;7.15;3.95;;;;;;;-143.21;59.78;71982.94;5113320;28;20216;-79
2023/07/09 00:50:10;;;;;;;6.80;3.72;;;;;;;-143.21;59.97;71988.91;5113367;28;20196;-79
2023/07/09 00:52:45;;;;;;;11.10;3.90;;;;;;;-143.21;59.76;71978.97;5113391;28;20678;-78
2023/07/09 00:55:18;;;;;;;6.65;3.78;;;;;;;-143.21;59.72;71975.00;5113132;28;20207;-79
2023/07/09 00:57:55;;;;;;;9.60;4.13;;;;;;;-143.21;59.89;71980.97;5113076;28;20210;-79
2023/07/09 01:00:24;;;;;;;8.35;4.00;;;;;;;-143.21;60.00;71986.91;5113426;28;20206;-79
2023/07/09 01:02:51;;;;;;;4.68;3.58;;;;;;;-143.21;59.60;71986.91;5113227;28;20188;-79
2023/07/09 01:05:19;;;;;;;8.13;4.22;;;;;;;-143.21;59.54;71980.97;5112940;28;20195;-79
2023/07/09 01:07:48;;;;;;;6.65;3.80;;;;;;;-143.21;59.75;71988.91;5112568;28;20658;-79
2023/07/09 01:10:18;;;;;;;6.38;3.70;;;;;;;-143.21;59.82;71986.91;5127709;27;20200;-79
2023/07/09 01:12:47;;;;;;;9.18;4.05;;;;;;;-143.21;59.66;71980.97;5132777;27;20183;-79
2023/07/09 01:15:15;;;;;;;8.27;4.10;;;;;;;-143.21;59.66;71971.06;5133410;27;20202;-79
2023/07/09 01:17:44;;;;;;;4.75;3.83;;;;;;;-143.21;59.47;71967.09;5133367;27;20666;-79
2023/07/09 01:20:20;;;;;;;5.90;3.90;;;;;;;-143.21;59.28;71971.06;5133435;27;20206;-79
2023/07/09 01:22:50;;;;;;;6.90;3.78;;;;;;;-143.21;59.52;71975.00;5133194;27;20630;-80
2023/07/09 01:25:17;;;;;;;8.15;3.88;;;;;;;-143.21;59.77;71982.94;5133060;27;20267;-79
2023/07/09 01:27:59;;;;;;;7.20;3.72;;;;;;;-143.21;60.24;71984.94;5133226;27;20195;-80
2023/07/09 01:30:33;;;;;;;7.70;3.50;;;;;;;-143.21;59.58;71978.97;5133276;27;20199;-80
2023/07/09 01:33:02;;;;;;;7.38;3.47;;;;;;;-143.21;59.84;71982.94;5133002;27;20180;-80
2023/07/09 01:35:31;;;;;;;5.80;3.90;;;;;;;-143.21;60.31;71986.91;5132898;27;20674;-79
2023/07/09 01:38:00;;;;;;;7.30;3.78;;;;;;;-143.21;60.62;71998.81;5133014;27;20631;-80
2023/07/09 01:40:38;;;;;;;5.68;4.00;;;;;;;-143.21;60.71;72002.78;5116443;27;20204;-80
2023/07/09 01:43:09;;;;;;;8.13;4.38;;;;;;;-143.21;60.89;72008.72;5112690;28;20200;-80
2023/07/09 01:45:37;;;;;;;5.35;3.88;;;;;;;-143.21;61.23;72016.66;5112442;28;22162;-80
2023/07/09 01:48:05;;;;;;;9.05;4.00;;;;;;;-143.21;61.20;72018.63;5112349;28;20193;-80
2023/07/09 01:50:32;;;;;;;10.13;4.32;;;;;;;-143.21;61.34;72024.59;5112199;28;20204;-80
2023/07/09 01:53:00;;;;;;;12.80;4.30;;;;;;;-143.21;61.13;72016.66;5112288;28;20191;-79
2023/07/09 01:55:29;;;;;;;10.45;4.18;;;;;;;-143.21;60.60;72006.75;5112345;28;20196;-79
2023/07/09 01:57:56;;;;;;;5.60;4.05;;;;;;;-143.21;60.31;72002.78;5112220;28;20653;-79
2023/07/09 02:00:23;;;;;;;12.32;4.32;;;;;;;-143.21;60.10;72006.75;5112341;28;20195;-79
2023/07/09 02:02:50;;;;;;;8.27;3.95;;;;;;;-143.21;60.34;72018.63;5112430;28;20261;-79
2023/07/09 02:05:18;;;;;;;7.53;4.30;;;;;;;-143.21;60.39;72020.63;5111973;28;20256;-79
2023/07/09 02:07:46;;;;;;;7.18;3.92;;;;;;;-143.21;60.73;72022.59;5111731;28;20303;-79
2023/07/09 02:10:16;;;;;;;6.15;4.18;;;;;;;-143.21;60.60;72022.59;5112133;28;20204;-79
2023/07/09 02:12:43;;;;;;;5.88;3.88;;;;;;;-143.21;61.04;72020.63;5112061;28;20647;-79
2023/07/09 02:15:10;;;;;;;7.57;4.60;;;;;;;-143.21;61.19;72012.69;5111915;28;20643;-79
2023/07/09 02:17:37;;;;;;;7.53;4.32;;;;;;;-143.21;61.89;72014.69;5111563;28;20647;-79
2023/07/09 02:20:06;;;;;;;8.57;4.43;;;;;;;-143.21;62.49;72014.69;5112213;28;20229;-78
2023/07/09 02:22:33;;;;;;;7.72;4.00;;;;;;;-143.21;62.95;72018.63;5112095;28;20659;-78
2023/07/09 02:25:00;;;;;;;12.18;4.47;;;;;;;-143.21;63.39;72030.53;5111749;28;20203;-79
2023/07/09 02:27:28;;;;;;;10.50;4.32;;;;;;;-143.21;63.43;72036.50;5111272;28;20678;-79
2023/07/09 02:29:55;;;;;;;12.15;4.40;;;;;;;-143.21;63.49;72050.38;5126609;28;20700;-79
2023/07/09 02:32:25;;;;;;;7.93;4.95;;;;;;;-143.21;63.89;72052.34;5131868;28;20202;-79
2023/07/09 02:34:53;;;;;;;11.77;5.32;;;;;;;-143.21;64.25;72058.31;5132639;28;20187;-80
2023/07/09 02:37:22;;;;;;;13.15;5.47;;;;;;;-143.21;64.07;72052.34;5132059;28;21006;-80
2023/07/09 02:39:48;;;;;;;11.68;5.28;;;;;;;-143.21;64.55;72062.25;5132215;28;20195;-79
2023/07/09 02:42:17;;;;;;;10.00;4.70;;;;;;;-143.21;64.88;72076.16;5132042;28;20195;-80
2023/07/09 02:44:46;;;;;;;10.77;4.95;;;;;;;-143.21;65.32;72078.13;5132300;28;20202;-80
2023/07/09 02:47:14;;;;;;;8.38;4.60;;;;;;;-143.21;65.40;72082.09;5128724;28;20961;-80
2023/07/09 02:49:41;;;;;;;9.00;4.93;;;;;;;-143.21;65.30;72099.94;5130222;28;20266;-80
2023/07/09 02:52:09;;;;;;;7.90;4.82;;;;;;;-143.21;64.37;72103.91;5130204;28;20192;-79
2023/07/09 02:54:36;;;;;;;8.35;4.53;;;;;;;-143.21;63.93;72109.84;5130592;28;20243;-80
2023/07/09 02:57:03;;;;;;;11.82;4.85;;;;;;;-143.21;63.70;72109.84;5128961;28;20278;-80
2023/07/09 02:59:30;;;;;;;10.05;5.03;;;;;;;-143.21;63.43;72113.81;5130110;28;20184;-80
2023/07/09 03:01:58;;;;;;;10.80;5.30;;;;;;;-143.21;63.89;72115.81;5131204;27;20248;-80
2023/07/09 03:04:25;;;;;;;9.07;5.05;;;;;;;-143.21;64.21;72121.75;5135103;27;20263;-79
2023/07/09 03:06:52;;;;;;;9.25;5.75;;;;;;;-143.21;63.84;72129.69;5134450;27;20234;-79
2023/07/09 03:09:19;;;;;;;19.83;13.55;;;;;;;-143.21;63.33;72131.69;5126876;27;20698;-80
2023/07/09 03:11:46;;;;;;;23.45;16.80;;;;;;;-143.21;63.43;72121.75;5113722;28;20924;-79
2023/07/09 03:14:13;;;;;;;19.40;9.82;;;;;;;-143.21;64.09;72125.72;5113635;28;20200;-80
2023/07/09 03:16:40;;;;;;;15.02;10.35;;;;;;;-143.21;64.42;72115.81;5113942;28;20192;-79
2023/07/09 03:19:09;;;;;;;15.93;9.25;;;;;;;-143.21;64.83;72115.81;5113685;28;20234;-79
2023/07/09 03:21:35;;;;;;;15.27;7.20;;;;;;;-143.21;65.14;72115.81;5113306;28;20200;-79
2023/07/09 03:24:03;;;;;;;9.07;5.22;;;;;;;-143.21;65.33;72119.78;5114088;28;20203;-80
2023/07/09 03:26:30;;;;;;;11.50;5.00;;;;;;;-143.21;65.30;72125.72;5113244;28;20667;-80
2023/07/09 03:28:57;;;;;;;11.88;4.82;;;;;;;-143.21;65.33;72129.69;5113678;28;20196;-79
2023/07/09 03:31:23;;;;;;;11.02;4.93;;;;;;;-143.21;65.44;72133.66;5113794;28;20628;-80
2023/07/09 03:33:51;;;;;;;8.57;4.72;;;;;;;-143.21;65.82;72139.59;5113024;28;20569;-79
2023/07/09 03:36:20;;;;;;;11.13;5.00;;;;;;;-143.21;66.11;72135.63;5113103;28;20235;-79
2023/07/09 03:38:47;;;;;;;10.30;5.22;;;;;;;-143.21;66.36;72141.59;5112891;28;20195;-79
2023/07/09 03:41:14;;;;;;;10.35;5.07;;;;;;;-143.21;66.77;72143.56;5113295;28;20199;-79
2023/07/09 03:43:41;;;;;;;14.68;5.55;;;;;;;-143.21;67.21;72149.53;5113184;28;20196;-80
2023/07/09 03:46:08;;;;;;;11.50;5.00;;;;;;;-143.21;67.09;72149.53;5112108;28;20188;-79
2023/07/09 03:48:35;;;;;;;10.77;4.90;;;;;;;-143.21;67.27;72153.47;5112382;28;20203;-80
2023/07/09 03:51:02;;;;;;;16.15;5.13;;;;;;;-143.21;67.55;72149.53;5112747;28;20208;-79
2023/07/09 03:53:30;;;;;;;19.92;5.68;;;;;;;-143.21;67.69;72147.53;5112565;28;20204;-78
2023/07/09 03:55:59;;;;;;;10.27;5.53;;;;;;;-143.21;67.76;72155.47;5110633;28;20203;-80
2023/07/09 03:58:26;;;;;;;12.35;4.97;;;;;;;-143.21;67.80;72159.44;5112887;28;20222;-79
2023/07/09 04:00:59;;;;;;;12.30;5.53;;;;;;;-143.21;68.49;72163.41;5112450;28;20196;-79
2023/07/09 04:03:26;;;;;;;17.85;5.60;;;;;;;-143.21;68.92;72169.34;5112536;28;20188;-79
2023/07/09 04:05:52;;;;;;;12.90;5.65;;;;;;;-143.21;68.79;72171.34;5112755;28;20203;-80
2023/07/09 04:08:20;;;;;;;12.70;5.40;;;;;;;-143.21;68.40;72163.41;5113662;28;20748;-80
2023/07/09 04:10:48;;;;;;;17.95;5.38;;;;;;;-143.21;68.16;72161.41;5113511;28;20550;-80
2023/07/09 04:13:14;;;;;;;15.95;5.30;;;;;;;-143.21;67.24;72163.41;5113177;28;20192;-80
2023/07/09 04:15:41;;;;;;;16.75;5.25;;;;;;;-143.21;67.18;72153.47;5112915;28;20557;-79
2023/07/09 04:18:08;;;;;;;12.55;5.78;;;;;;;-143.21;67.00;72147.53;5113321;28;20196;-80
2023/07/09 04:20:35;;;;;;;11.88;5.43;;;;;;;-143.21;66.57;72143.56;5113048;28;20192;-81
2023/07/09 04:23:02;;;;;;;13.77;5.38;;;;;;;-143.21;66.82;72153.47;5113533;27;20203;-81
2023/07/09 04:25:29;;;;;;;14.15;5.45;;;;;;;-143.21;66.91;72139.59;5113336;28;20230;-80
2023/07/09 04:27:59;;;;;;;10.93;4.97;;;;;;;-143.21;67.58;72145.56;5112939;28;20222;-80
2023/07/09 04:30:26;;;;;;;14.10;5.40;;;;;;;-143.21;67.30;72139.59;5112599;28;20223;-80
2023/07/09 04:32:52;;;;;;;13.73;4.85;;;;;;;-143.21;67.50;72137.63;5112962;28;20830;-80
2023/07/09 04:35:19;;;;;;;10.57;5.53;;;;;;;-143.21;66.80;72139.59;5112126;28;20196;-79
2023/07/09 04:37:45;;;;;;;8.57;5.10;;;;;;;-143.21;67.17;72137.63;5112590;28;20188;-79
2023/07/09 04:40:13;;;;;;;16.05;5.75;;;;;;;-143.21;67.20;72125.72;5126769;27;20301;-80
2023/07/09 04:42:41;;;;;;;8.85;5.28;;;;;;;-143.21;66.85;72117.78;5133071;27;20198;-80
2023/07/09 04:45:12;;;;;;;10.75;5.38;;;;;;;-143.21;66.25;72115.81;5132727;27;20195;-80
2023/07/09 04:47:40;;;;;;;10.95;4.85;;;;;;;-143.21;66.56;72101.94;5132261;27;20219;-79
2023/07/09 04:50:08;;;;;;;11.25;4.78;;;;;;;-143.21;66.14;72099.94;5132845;27;20202;-79
2023/07/09 04:52:36;;;;;;;9.60;5.88;;;;;;;-143.21;66.18;72095.97;5132917;27;20615;-80
2023/07/09 04:55:02;;;;;;;10.10;5.97;;;;;;;-143.21;65.84;72090.03;5132613;27;20199;-80
2023/07/09 04:57:29;;;;;;;12.07;5.30;;;;;;;-143.21;65.60;72088.03;5131093;27;20188;-80
2023/07/09 04:59:56;;;;;;;8.45;5.47;;;;;;;-143.21;65.40;72092.00;5131811;27;20200;-79
2023/07/09 05:02:25;;;;;;;8.93;4.90;;;;;;;-143.21;65.58;72094.00;5130991;27;20215;-79
2023/07/09 05:04:52;;;;;;;8.70;4.78;;;;;;;-143.21;64.94;72092.00;5130832;27;20626;-79
2023/07/09 05:07:19;;;;;;;12.00;4.63;;;;;;;-143.21;64.75;72094.00;5131256;27;20662;-79
2023/07/09 05:09:46;;;;;;;13.30;5.57;;;;;;;-143.21;65.34;72094.00;5132347;27;20191;-80
2023/07/09 05:12:12;;;;;;;9.93;5.00;;;;;;;-143.21;65.34;72086.06;5133140;27;20202;-81
2023/07/09 05:14:40;;;;;;;11.55;5.45;;;;;;;-143.21;64.77;72092.00;5132696;27;20199;-80
2023/07/09 05:17:07;;;;;;;9.90;4.78;;;;;;;-143.21;62.81;72056.31;5132776;27;20202;-80
2023/07/09 05:19:37;;;;;;;11.45;5.00;;;;;;;-143.21;62.88;72050.38;5132269;27;20567;-80
2023/07/09 05:22:04;;;;;;;8.25;4.70;;;;;;;-143.21;62.88;72038.47;5132760;27;20184;-81
2023/07/09 05:24:31;;;;;;;7.78;4.43;;;;;;;-143.21;62.24;72032.53;5131925;27;20256;-80
2023/07/09 05:26:58;;;;;;;11.95;4.57;;;;;;;-143.21;62.75;72036.50;5132163;27;20223;-80
2023/07/09 05:29:26;;;;;;;8.32;4.88;;;;;;;-143.21;63.01;72024.59;5132290;27;20199;-80
2023/07/09 05:31:53;;;;;;;8.30;4.70;;;;;;;-143.21;61.68;72022.59;5132179;27;20206;-79
2023/07/09 05:34:21;;;;;;;8.30;4.70;;;;;;;-143.21;61.28;72016.66;5131903;27;20195;-80
2023/07/09 05:36:49;;;;;;;8.02;4.50;;;;;;;-143.21;61.27;71992.88;5131924;27;20261;-80
2023/07/09 05:39:16;;;;;;;8.95;4.38;;;;;;;-143.21;60.58;71986.91;5125425;27;20195;-79
2023/07/09 05:41:43;;;;;;;10.40;5.20;;;;;;;-143.21;60.53;71978.97;5111311;28;20279;-80
2023/07/09 05:44:10;;;;;;;8.65;4.53;;;;;;;-143.21;60.06;71977.00;5111753;28;20191;-81
2023/07/09 05:46:38;;;;;;;9.40;5.20;;;;;;;-143.21;60.97;71994.84;5110979;28;20192;-80
2023/07/09 05:49:05;;;;;;;8.38;4.60;;;;;;;-143.21;61.86;71996.81;5110470;28;20590;-80
2023/07/09 05:51:32;;;;;;;7.97;4.30;;;;;;;-143.21;61.79;71990.88;5110427;28;20196;-80
2023/07/09 05:54:00;;;;;;;13.38;5.38;;;;;;;-143.21;62.02;71996.81;5110074;28;20226;-79
2023/07/09 05:56:28;;;;;;;9.20;4.75;;;;;;;-143.21;61.99;71986.91;5108732;28;20204;-79
2023/07/09 05:58:56;;;;;;;9.07;5.03;;;;;;;-143.21;62.00;71967.09;5109648;28;20663;-80
2023/07/09 06:01:23;;;;;;;6.55;4.50;;;;;;;-143.21;61.40;71949.25;5110725;28;20547;-80
2023/07/09 06:03:50;;;;;;;7.82;4.63;;;;;;;-143.21;61.14;71945.28;5110686;28;20578;-80
2023/07/09 06:06:17;;;;;;;10.25;5.15;;;;;;;-143.21;60.83;71935.34;5110587;28;20215;-80
2023/07/09 06:08:44;;;;;;;8.77;4.47;;;;;;;-143.21;61.27;71943.28;5110308;28;20251;-80
2023/07/09 06:11:12;;;;;;;6.70;4.70;;;;;;;-143.21;60.67;71927.44;5110213;28;20199;-80
2023/07/09 06:13:39;;;;;;;5.72;3.90;;;;;;;-143.21;61.19;71933.38;5110700;28;20864;-80
2023/07/09 06:16:06;;;;;;;9.32;4.55;;;;;;;-143.21;60.66;71917.50;5110590;28;20200;-80
2023/07/09 06:18:33;;;;;;;8.15;4.45;;;;;;;-143.21;61.22;71925.44;5109521;28;20561;-79
2023/07/09 06:21:02;;;;;;;10.20;4.75;;;;;;;-143.21;60.81;71917.50;5109295;28;20662;-80
2023/07/09 06:23:30;;;;;;;6.97;4.20;;;;;;;-143.21;60.44;71917.50;5109628;28;20188;-80
2023/07/09 06:25:57;;;;;;;9.73;4.72;;;;;;;-143.21;61.10;71915.53;5110768;28;20276;-79
2023/07/09 06:28:29;;;;;;;8.35;4.10;;;;;;;-143.21;60.78;71921.47;5110440;28;20712;-81
2023/07/09 06:30:56;;;;;;;7.63;4.65;;;;;;;-143.21;60.08;71917.50;5110536;28;20184;-81
2023/07/09 06:33:23;;;;;;;9.15;4.07;;;;;;;-143.21;60.08;71911.56;5110143;28;20270;-81
2023/07/09 06:35:52;;;;;;;6.53;4.47;;;;;;;-143.21;59.60;71897.69;5110671;28;20659;-81
2023/07/09 06:38:19;;;;;;;9.10;4.43;;;;;;;-143.21;59.35;71891.72;5113374;28;20286;-81
2023/07/09 06:40:46;;;;;;;7.70;4.93;;;;;;;-143.21;58.60;71875.88;5134303;27;20206;-80
2023/07/09 06:43:13;;;;;;;6.32;4.15;;;;;;;-143.21;58.14;71862.00;5135291;27;20577;-81
2023/07/09 06:45:49;;;;;;;7.20;4.43;;;;;;;-143.21;58.06;71860.00;5135224;27;20305;-81
2023/07/09 06:48:16;;;;;;;7.22;4.45;;;;;;;-143.21;58.36;71854.06;5135067;27;20259;-81
2023/07/09 06:50:43;;;;;;;5.95;4.28;;;;;;;-143.21;58.21;71844.16;5135101;27;20203;-81
2023/07/09 06:53:10;;;;;;;8.02;4.72;;;;;;;-143.21;57.75;71836.22;5134815;27;20191;-80
2023/07/09 06:55:37;;;;;;;6.90;4.60;;;;;;;-143.21;57.09;71834.22;5133058;27;20199;-80
2023/07/09 06:58:04;;;;;;;12.55;4.25;;;;;;;-143.21;57.55;71820.34;5134664;27;20203;-81
2023/07/09 07:00:31;;;;;;;13.18;5.03;;;;;;;-143.21;58.29;71834.22;5134857;27;20191;-81
2023/07/09 07:02:59;;;;;;;11.77;4.40;;;;;;;-143.21;57.69;71824.31;5135402;27;20191;-82
2023/07/09 07:05:26;;;;;;;9.48;4.30;;;;;;;-143.21;57.69;71814.41;5135668;27;20203;-82
2023/07/09 07:07:53;;;;;;;7.28;4.43;;;;;;;-143.21;56.98;71812.41;5135160;27;20268;-82
2023/07/09 07:10:20;;;;;;;7.72;4.28;;;;;;;-143.21;56.46;71796.56;5134635;27;20194;-81
2023/07/09 07:12:49;;;;;;;8.25;4.50;;;;;;;-143.21;56.09;71786.63;5135125;27;20203;-82
2023/07/09 07:15:18;;;;;;;5.18;4.18;;;;;;;-143.21;56.85;71790.59;5135100;27;20218;-81
2023/07/09 07:17:45;;;;;;;7.70;4.20;;;;;;;-143.21;57.32;71790.59;5133842;27;20195;-82
2023/07/09 07:20:15;;;;;;;6.03;4.20;;;;;;;-143.21;57.34;71784.66;5134619;27;20676;-82
2023/07/09 07:22:42;;;;;;;8.07;4.53;;;;;;;-143.21;56.70;71772.75;5134948;27;20227;-82
2023/07/09 07:25:08;;;;;;;6.95;5.10;;;;;;;-143.21;56.46;71764.81;5135174;27;20191;-81
2023/07/09 07:27:35;;;;;;;10.68;4.00;;;;;;;-143.21;55.79;71745.00;5134208;27;20302;-82
2023/07/09 07:30:02;;;;;;;5.57;4.07;;;;;;;-143.21;55.62;71743.00;5135073;27;20195;-82
2023/07/09 07:32:29;;;;;;;6.70;4.30;;;;;;;-143.21;55.56;71733.09;5134442;27;20980;-82
2023/07/09 07:34:56;;;;;;;8.68;4.28;;;;;;;-143.21;55.77;71745.00;5134683;27;20266;-88
2023/07/09 07:37:24;;;;;;;7.57;4.60;;;;;;;-143.21;56.96;71750.94;5133386;27;20223;-87
2023/07/09 07:39:51;;;;;;;7.60;4.10;;;;;;;-143.21;55.56;71731.13;5121284;27;20211;-86
2023/07/09 07:42:19;;;;;;;10.65;4.25;;;;;;;-143.21;54.59;71713.28;5114069;28;20215;-86
2023/07/09 07:44:46;;;;;;;5.43;4.05;;;;;;;-143.21;55.25;71705.34;5114323;28;21095;-88
2023/07/09 07:47:13;;;;;;;8.30;4.90;;;;;;;-143.21;56.47;71687.50;5113942;28;20227;-88
2023/07/09 07:49:40;;;;;;;8.27;4.50;;;;;;;-143.21;55.29;71679.56;5113780;28;20231;-88
2023/07/09 07:52:08;;;;;;;4.50;3.80;;;;;;;-143.21;54.46;71701.38;5114287;28;20211;-87
2023/07/09 07:54:36;;;;;;;10.38;4.15;;;;;;;-143.21;55.25;71709.31;5113926;28;20203;-88
2023/07/09 07:57:04;;;;;;;6.55;4.50;;;;;;;-143.21;54.54;71689.47;5112479;28;20250;-88
2023/07/09 07:59:34;;;;;;;7.30;4.53;;;;;;;-143.21;53.97;71681.56;5113578;28;20200;-88
2023/07/09 08:02:01;;;;;;;6.82;4.45;;;;;;;-143.21;54.35;71669.66;5114269;28;20576;-88
2023/07/09 08:04:28;;;;;;;13.32;4.93;;;;;;;-143.21;54.88;71671.63;5114011;28;20659;-89
2023/07/09 08:06:55;;;;;;;8.32;4.88;;;;;;;-143.21;55.11;71653.78;5114690;28;20192;-87
2023/07/09 08:09:22;;;;;;;8.75;4.45;;;;;;;-143.21;54.48;71643.88;5113705;28;20220;-87
2023/07/09 08:11:51;;;;;;;7.38;4.20;;;;;;;-143.21;51.91;71633.97;5114391;28;20241;-88
2023/07/09 08:14:18;;;;;;;7.50;4.00;;;;;;;-143.21;52.18;71628.00;5113541;28;20199;-87
2023/07/09 08:16:45;;;;;;;8.65;4.40;;;;;;;-143.21;52.33;71624.06;5113785;28;20188;-86
2023/07/09 08:19:12;;;;;;;7.55;4.43;;;;;;;-143.21;53.01;71628.00;5113822;28;20226;-84
2023/07/09 08:21:39;;;;;;;7.30;4.20;;;;;;;-143.21;53.72;71616.13;5113240;28;20202;-84
2023/07/09 08:24:07;;;;;;;6.53;4.45;;;;;;;-143.21;53.22;71604.22;5113549;28;20204;-83
2023/07/09 08:26:34;;;;;;;8.15;4.20;;;;;;;-143.21;53.33;71606.22;5113435;28;20180;-84
2023/07/09 08:29:02;;;;;;;7.72;4.38;;;;;;;-143.21;53.01;71606.22;5120690;27;20219;-84
2023/07/09 08:31:29;;;;;;;5.13;3.95;;;;;;;-143.21;52.76;71602.25;5134039;27;20199;-84
2023/07/09 08:34:00;;;;;;;9.05;4.30;;;;;;;-143.21;55.46;71590.34;5134031;27;20597;-86
2023/07/09 08:36:27;;;;;;;7.03;3.88;;;;;;;-143.21;52.46;71574.47;5135014;27;20231;-85
2023/07/09 08:38:54;;;;;;;6.28;4.72;;;;;;;-143.21;52.54;71558.63;5133402;27;20226;-85
2023/07/09 08:41:34;;;;;;;8.20;4.43;;;;;;;-143.21;52.96;71560.59;5133461;27;20211;-86
2023/07/09 08:44:14;;;;;;;5.60;4.35;;;;;;;-143.21;54.17;71550.69;5133789;27;20195;-90
2023/07/09 08:46:55;;;;;;;6.78;4.40;;;;;;;-143.21;52.30;71540.78;5133779;27;20200;-89
2023/07/09 08:49:31;;;;;;;8.55;4.60;;;;;;;-143.21;52.55;71540.78;5130081;27;20717;-91
2023/07/09 08:51:59;;;;;;;11.20;4.72;;;;;;;-143.21;53.36;71516.97;5133720;27;20188;-90
2023/07/09 08:54:30;;;;;;;6.40;4.43;;;;;;;-143.21;52.43;71513.03;5133682;27;20188;-89
2023/07/09 08:57:01;;;;;;;6.03;4.65;;;;;;;-143.21;54.40;71491.22;5131620;27;20199;-89
2023/07/09 08:59:30;;;;;;;6.95;4.00;;;;;;;-143.21;52.88;71459.47;5132800;27;20267;-88
2023/07/09 09:02:00;;;;;;;8.75;4.88;;;;;;;-143.21;51.70;71443.63;5133840;27;20256;-90
2023/07/09 09:04:30;;;;;;;7.72;4.82;;;;;;;-143.21;51.41;71451.56;5134410;27;20215;-91
2023/07/09 09:07:08;;;;;;;7.50;5.22;;;;;;;-143.21;50.66;71455.53;5133671;27;20662;-87
2023/07/09 09:09:39;;;;;;;10.70;5.38;;;;;;;-143.21;50.60;71443.63;5133480;27;20579;-88
2023/07/09 09:12:17;;;;;;;26.20;13.57;;;;;;;-143.21;53.22;71435.69;5133481;27;20176;-87
2023/07/09 09:14:49;;;;;;;8.88;5.75;;;;;;;-143.21;51.82;71421.81;5134049;27;20248;-87
2023/07/09 09:17:20;;;;;;;8.48;5.20;;;;;;;-143.21;51.99;71405.94;5133607;27;20200;-90
2023/07/09 09:19:53;;;;;;;7.68;5.00;;;;;;;-143.21;50.39;71384.16;5133485;27;20554;-90
2023/07/09 09:22:26;;;;;;;21.13;6.55;;;;;;;-143.21;52.62;71380.19;5133562;27;20256;-89
2023/07/09 09:24:59;;;;;;;13.77;5.10;;;;;;;-143.21;51.39;71372.25;5133863;27;20226;-88
2023/07/09 09:27:26;;;;;;;7.80;4.70;;;;;;;-143.21;51.08;71370.28;5133445;27;20210;-92
2023/07/09 09:29:54;;;;;;;9.35;4.65;;;;;;;-143.21;50.86;71346.47;5132624;27;20258;-85
2023/07/09 09:32:26;;;;;;;6.75;4.72;;;;;;;-143.21;49.23;71334.59;5133431;27;20203;-91
2023/07/09 09:34:53;;;;;;;7.82;4.47;;;;;;;-143.21;48.32;71346.47;5133641;27;20194;-88
2023/07/09 09:37:31;;;;;;;7.78;4.30;;;;;;;-143.21;49.84;71338.53;5133521;27;20241;-89
2023/07/09 09:40:01;;;;;;;6.40;4.90;;;;;;;-143.21;48.13;71304.84;5134189;27;20184;-89
2023/07/09 09:42:27;;;;;;;7.68;5.30;;;;;;;-143.21;48.82;71314.75;5134002;27;20658;-89
2023/07/09 09:44:56;;;;;;;5.75;4.07;;;;;;;-143.21;48.45;71306.81;5132441;27;20198;-88
2023/07/09 09:47:27;;;;;;;9.27;4.57;;;;;;;-143.21;48.18;71285.03;5132809;27;20542;-88
2023/07/09 09:49:54;;;;;;;6.28;4.50;;;;;;;-143.21;47.39;71267.19;5138517;27;20211;-89
2023/07/09 09:52:28;;;;;;;5.93;4.82;;;;;;;-143.21;46.79;71247.34;5143394;27;20450;-89
2023/07/09 09:55:02;;;;;;;5.50;4.30;;;;;;;-143.21;46.74;71275.09;5137337;27;20199;-88
2023/07/09 09:57:31;;;;;;;4.68;4.15;;;;;;;-143.21;48.55;71277.09;5141973;27;20662;-89
2023/07/09 10:00:00;;;;;;;7.45;4.22;;;;;;;-143.21;48.04;71267.19;5144085;27;20262;-89
2023/07/09 10:02:27;;;;;;;8.75;4.70;;;;;;;-143.21;47.87;71251.31;5146616;27;20198;-90
2023/07/09 10:04:54;;;;;;;5.75;3.85;;;;;;;-143.21;47.09;71233.47;5132915;27;20225;-87
2023/07/09 10:07:28;;;;;;;6.00;4.18;;;;;;;-143.21;47.43;71217.59;5124268;28;20367;-89
2023/07/09 10:09:56;;;;;;;7.57;4.18;;;;;;;-143.21;47.02;71207.69;5122999;28;20624;-88
2023/07/09 10:12:40;;;;;;;5.32;4.15;;;;;;;-143.21;46.27;71199.78;5123056;28;20274;-88
2023/07/09 10:15:28;;;;;;;7.70;4.28;;;;;;;-143.21;45.10;71199.78;5110604;28;20215;-79
2023/07/09 10:18:03;;;;;;;6.15;4.25;;;;;;;-143.21;46.00;71195.81;5105838;28;20216;-79
2023/07/09 10:20:36;;;;;;;7.88;3.90;;;;;;;-143.21;45.89;71199.78;5106936;28;20194;-79
2023/07/09 10:23:18;;;;;;;5.03;3.85;;;;;;;-143.21;46.35;71179.94;5107930;27;20188;-79
2023/07/09 10:25:52;;;;;;;30.55;5.40;;;;;;;-143.21;46.84;71170.03;5115898;28;20282;-80
2023/07/09 10:28:48;;;;;;;25.80;4.60;;;;;;;-143.21;45.14;71120.47;5107540;28;20214;-80
2023/07/09 10:31:21;;;;;;;47.95;6.53;;;;;;;-143.21;44.22;71082.81;5107523;28;20277;-80
2023/07/09 10:34:02;;;;;;;20.85;5.03;;;;;;;-143.21;43.80;71070.91;5120711;28;20206;-80
2023/07/09 10:36:45;;;;;;;8.13;4.22;;;;;;;-143.21;43.58;71072.88;5111668;28;20278;-78
2023/07/09 10:39:19;;;;;;;5.95;3.95;;;;;;;-143.21;43.41;71057.03;5114082;28;20191;-80
2023/07/09 10:41:51;;;;;;;4.68;3.60;;;;;;;-143.21;42.89;71068.94;5110000;28;20203;-79
2023/07/09 10:44:29;;;;;;;7.95;4.22;;;;;;;-143.21;43.55;71070.91;5110863;28;20567;-80
2023/07/09 10:47:07;;;;;;;5.50;3.72;;;;;;;-143.21;42.78;71064.97;5110147;28;20658;-79
2023/07/09 10:49:38;;;;;;;5.00;3.67;;;;;;;-143.21;41.91;71084.78;5112185;28;20602;-80
2023/07/09 10:52:08;;;;;;;5.78;3.83;;;;;;;-143.21;41.73;71116.50;5109881;28;20207;-79
2023/07/09 10:54:40;;;;;;;4.35;3.50;;;;;;;-143.21;42.30;71116.50;5110847;28;20213;-80
2023/07/09 10:57:23;;;;;;;4.45;3.70;;;;;;;-143.21;42.63;71098.66;5110641;28;20192;-80
2023/07/09 10:59:51;;;;;;;5.05;3.85;;;;;;;-143.21;42.27;71061.00;5113359;28;20195;-79
2023/07/09 11:02:24;;;;;;;5.65;3.42;;;;;;;-143.21;42.72;71043.16;5117041;28;20231;-80
2023/07/09 11:04:55;;;;;;;6.70;3.90;;;;;;;-143.21;41.78;71009.44;5109832;28;20598;-80
2023/07/09 11:07:28;;;;;;;5.13;3.50;;;;;;;-143.21;40.39;70983.69;5109568;28;20666;-79
2023/07/09 11:09:58;;;;;;;5.63;3.70;;;;;;;-143.21;40.15;70985.66;5110449;28;20706;-80
2023/07/09 11:12:32;;;;;;;4.38;3.40;;;;;;;-143.21;41.70;71007.47;5110001;28;20201;-79
2023/07/09 11:15:04;;;;;;;7.97;3.97;;;;;;;-143.21;40.67;70991.63;5110020;28;20207;-80
2023/07/09 11:17:34;;;;;;;6.38;3.60;;;;;;;-143.21;41.78;70983.69;5110325;28;20203;-80
2023/07/09 11:20:08;;;;;;;5.50;3.78;;;;;;;-143.21;41.02;70975.75;5113574;28;20658;-80
2023/07/09 11:22:40;;;;;;;9.88;3.22;;;;;;;-143.21;41.68;70965.84;5118846;27;20680;-80
2023/07/09 11:25:10;;;;;;;7.45;3.92;;;;;;;-143.21;41.55;70963.84;5123160;27;20200;-80